sensor_id;sensor_type;location;lat;lon;timestamp;P1;durP1;ratioP1;P2;durP2;ratioP2
2157;SDS011;41972;48.774;9.282;2023-08-06T00:01:44;34.33;;;32.40;;
2157;SDS011;41972;48.774;9.282;2023-08-06T00:04:09;27.77;;;25.77;;
2157;SDS011;41972;48.774;9.282;2023-08-06T00:06:35;25.20;;;23.40;;
2157;SDS011;41972;48.774;9.282;2023-08-06T00:09:00;22.77;;;21.33;;
2157;SDS011;41972;48.774;9.282;2023-08-06T00:11:26;34.27;;;32.30;;
2157;SDS011;41972;48.774;9.282;2023-08-06T00:13:51;42.80;;;40.50;;
2157;SDS011;41972;48.774;9.282;2023-08-06T00:16:17;40.53;;;38.53;;
2157;SDS011;41972;48.774;9.282;2023-08-06T00:18:42;48.67;;;46.23;;
2157;SDS011;41972;48.774;9.282;2023-08-06T00:21:08;31.83;;;30.10;;
2157;SDS011;41972;48.774;9.282;2023-08-06T00:23:34;30.23;;;28.10;;
2157;SDS011;41972;48.774;9.282;2023-08-06T00:25:59;41.07;;;38.73;;
2157;SDS011;41972;48.774;9.282;2023-08-06T00:28:25;37.97;;;35.83;;
2157;SDS011;41972;48.774;9.282;2023-08-06T00:30:54;30.53;;;28.77;;
2157;SDS011;41972;48.774;9.282;2023-08-06T00:33:20;39.40;;;37.30;;
2157;SDS011;41972;48.774;9.282;2023-08-06T00:35:48;33.40;;;31.40;;
2157;SDS011;41972;48.774;9.282;2023-08-06T00:38:14;39.33;;;37.23;;
2157;SDS011;41972;48.774;9.282;2023-08-06T00:40:40;34.47;;;32.20;;
2157;SDS011;41972;48.774;9.282;2023-08-06T00:43:05;19.23;;;17.83;;
2157;SDS011;41972;48.774;9.282;2023-08-06T00:45:33;21.17;;;19.47;;
2157;SDS011;41972;48.774;9.282;2023-08-06T00:48:00;19.73;;;18.20;;
2157;SDS011;41972;48.774;9.282;2023-08-06T00:50:26;24.20;;;22.50;;
2157;SDS011;41972;48.774;9.282;2023-08-06T00:52:52;24.13;;;22.63;;
2157;SDS011;41972;48.774;9.282;2023-08-06T00:55:19;31.40;;;29.30;;
2157;SDS011;41972;48.774;9.282;2023-08-06T00:57:44;25.00;;;23.00;;
2157;SDS011;41972;48.774;9.282;2023-08-06T01:00:12;23.50;;;21.80;;
2157;SDS011;41972;48.774;9.282;2023-08-06T01:02:38;21.80;;;19.90;;
2157;SDS011;41972;48.774;9.282;2023-08-06T01:05:05;20.30;;;18.53;;
2157;SDS011;41972;48.774;9.282;2023-08-06T01:07:40;21.97;;;20.40;;
2157;SDS011;41972;48.774;9.282;2023-08-06T01:15:43;22.03;;;20.53;;
2157;SDS011;41972;48.774;9.282;2023-08-06T01:18:12;27.10;;;25.20;;
2157;SDS011;41972;48.774;9.282;2023-08-06T01:20:38;23.83;;;22.23;;
2157;SDS011;41972;48.774;9.282;2023-08-06T01:23:04;25.80;;;24.30;;
2157;SDS011;41972;48.774;9.282;2023-08-06T01:25:30;18.43;;;17.10;;
2157;SDS011;41972;48.774;9.282;2023-08-06T01:28:01;17.30;;;16.00;;
2157;SDS011;41972;48.774;9.282;2023-08-06T01:30:34;17.83;;;16.47;;
2157;SDS011;41972;48.774;9.282;2023-08-06T01:33:05;17.77;;;16.37;;
2157;SDS011;41972;48.774;9.282;2023-08-06T01:35:36;18.20;;;16.70;;
2157;SDS011;41972;48.774;9.282;2023-08-06T01:38:03;22.40;;;20.97;;
2157;SDS011;41972;48.774;9.282;2023-08-06T01:40:29;22.00;;;20.10;;
2157;SDS011;41972;48.774;9.282;2023-08-06T01:42:54;21.30;;;19.80;;
2157;SDS011;41972;48.774;9.282;2023-08-06T01:45:20;12.50;;;11.60;;
2157;SDS011;41972;48.774;9.282;2023-08-06T01:47:46;15.57;;;14.53;;
2157;SDS011;41972;48.774;9.282;2023-08-06T01:50:11;10.57;;;9.67;;
2157;SDS011;41972;48.774;9.282;2023-08-06T01:52:37;12.10;;;11.33;;
2157;SDS011;41972;48.774;9.282;2023-08-06T01:55:02;14.47;;;13.60;;
2157;SDS011;41972;48.774;9.282;2023-08-06T01:57:28;10.43;;;9.63;;
2157;SDS011;41972;48.774;9.282;2023-08-06T01:59:54;11.67;;;10.90;;
2157;SDS011;41972;48.774;9.282;2023-08-06T02:02:19;11.10;;;10.30;;
2157;SDS011;41972;48.774;9.282;2023-08-06T02:04:45;33.50;;;32.10;;
2157;SDS011;41972;48.774;9.282;2023-08-06T02:07:10;16.20;;;15.20;;
2157;SDS011;41972;48.774;9.282;2023-08-06T02:09:36;13.93;;;12.93;;
2157;SDS011;41972;48.774;9.282;2023-08-06T02:12:02;13.73;;;12.67;;
2157;SDS011;41972;48.774;9.282;2023-08-06T02:14:27;14.50;;;13.50;;
2157;SDS011;41972;48.774;9.282;2023-08-06T02:16:53;17.03;;;15.83;;
2157;SDS011;41972;48.774;9.282;2023-08-06T02:19:19;15.60;;;14.60;;
2157;SDS011;41972;48.774;9.282;2023-08-06T02:21:44;14.83;;;13.83;;
2157;SDS011;41972;48.774;9.282;2023-08-06T02:24:10;15.07;;;14.00;;
2157;SDS011;41972;48.774;9.282;2023-08-06T02:26:35;15.93;;;14.90;;
2157;SDS011;41972;48.774;9.282;2023-08-06T02:29:01;15.10;;;13.90;;
2157;SDS011;41972;48.774;9.282;2023-08-06T02:31:26;16.43;;;15.40;;
2157;SDS011;41972;48.774;9.282;2023-08-06T02:33:52;11.00;;;10.30;;
2157;SDS011;41972;48.774;9.282;2023-08-06T02:36:18;12.43;;;11.53;;
2157;SDS011;41972;48.774;9.282;2023-08-06T02:38:44;9.47;;;8.87;;
2157;SDS011;41972;48.774;9.282;2023-08-06T02:41:10;11.73;;;10.93;;
2157;SDS011;41972;48.774;9.282;2023-08-06T02:43:35;10.37;;;9.50;;
2157;SDS011;41972;48.774;9.282;2023-08-06T02:46:01;9.73;;;9.03;;
2157;SDS011;41972;48.774;9.282;2023-08-06T02:48:26;10.30;;;9.57;;
2157;SDS011;41972;48.774;9.282;2023-08-06T02:50:52;13.40;;;12.30;;
2157;SDS011;41972;48.774;9.282;2023-08-06T02:53:18;11.33;;;10.53;;
2157;SDS011;41972;48.774;9.282;2023-08-06T02:55:47;13.07;;;12.23;;
2157;SDS011;41972;48.774;9.282;2023-08-06T02:58:13;11.20;;;10.60;;
2157;SDS011;41972;48.774;9.282;2023-08-06T03:00:42;14.80;;;14.00;;
2157;SDS011;41972;48.774;9.282;2023-08-06T03:03:11;11.17;;;10.20;;
2157;SDS011;41972;48.774;9.282;2023-08-06T03:05:37;13.13;;;10.80;;
2157;SDS011;41972;48.774;9.282;2023-08-06T03:08:02;9.80;;;9.00;;
2157;SDS011;41972;48.774;9.282;2023-08-06T03:10:28;10.23;;;9.53;;
2157;SDS011;41972;48.774;9.282;2023-08-06T03:12:54;9.73;;;9.07;;
2157;SDS011;41972;48.774;9.282;2023-08-06T03:15:19;7.87;;;7.17;;
2157;SDS011;41972;48.774;9.282;2023-08-06T03:17:45;10.13;;;9.23;;
2157;SDS011;41972;48.774;9.282;2023-08-06T03:20:10;7.30;;;6.80;;
2157;SDS011;41972;48.774;9.282;2023-08-06T03:22:36;7.30;;;6.80;;
2157;SDS011;41972;48.774;9.282;2023-08-06T03:25:02;8.47;;;7.70;;
2157;SDS011;41972;48.774;9.282;2023-08-06T03:27:28;8.60;;;8.10;;
2157;SDS011;41972;48.774;9.282;2023-08-06T03:29:53;11.10;;;10.03;;
2157;SDS011;41972;48.774;9.282;2023-08-06T03:32:19;9.30;;;8.60;;
2157;SDS011;41972;48.774;9.282;2023-08-06T03:34:45;10.33;;;9.63;;
2157;SDS011;41972;48.774;9.282;2023-08-06T03:37:10;11.13;;;10.33;;
2157;SDS011;41972;48.774;9.282;2023-08-06T03:39:36;9.77;;;9.13;;
2157;SDS011;41972;48.774;9.282;2023-08-06T03:42:03;9.07;;;8.43;;
2157;SDS011;41972;48.774;9.282;2023-08-06T03:44:29;8.47;;;7.90;;
2157;SDS011;41972;48.774;9.282;2023-08-06T03:46:55;9.00;;;8.40;;
2157;SDS011;41972;48.774;9.282;2023-08-06T03:49:21;10.80;;;10.20;;
2157;SDS011;41972;48.774;9.282;2023-08-06T03:51:46;10.60;;;9.80;;
2157;SDS011;41972;48.774;9.282;2023-08-06T03:54:12;7.33;;;6.83;;
2157;SDS011;41972;48.774;9.282;2023-08-06T03:56:37;18.30;;;17.40;;
2157;SDS011;41972;48.774;9.282;2023-08-06T03:59:03;15.57;;;14.77;;
2157;SDS011;41972;48.774;9.282;2023-08-06T04:01:28;23.30;;;22.20;;
2157;SDS011;41972;48.774;9.282;2023-08-06T04:03:54;31.33;;;30.03;;
2157;SDS011;41972;48.774;9.282;2023-08-06T04:06:19;16.93;;;15.80;;
2157;SDS011;41972;48.774;9.282;2023-08-06T04:08:45;9.80;;;9.20;;
2157;SDS011;41972;48.774;9.282;2023-08-06T04:11:11;8.30;;;7.60;;
2157;SDS011;41972;48.774;9.282;2023-08-06T04:13:38;14.20;;;13.40;;
2157;SDS011;41972;48.774;9.282;2023-08-06T04:16:03;6.73;;;6.23;;
2157;SDS011;41972;48.774;9.282;2023-08-06T04:18:30;9.80;;;9.30;;
2157;SDS011;41972;48.774;9.282;2023-08-06T04:20:55;18.43;;;17.57;;
2157;SDS011;41972;48.774;9.282;2023-08-06T04:23:22;9.40;;;8.80;;
2157;SDS011;41972;48.774;9.282;2023-08-06T04:25:48;14.43;;;13.73;;
2157;SDS011;41972;48.774;9.282;2023-08-06T04:28:14;12.00;;;11.40;;
2157;SDS011;41972;48.774;9.282;2023-08-06T04:30:39;7.97;;;7.17;;
2157;SDS011;41972;48.774;9.282;2023-08-06T04:33:05;7.93;;;7.33;;
2157;SDS011;41972;48.774;9.282;2023-08-06T04:35:30;9.33;;;8.70;;
2157;SDS011;41972;48.774;9.282;2023-08-06T04:37:56;20.83;;;19.93;;
2157;SDS011;41972;48.774;9.282;2023-08-06T04:40:21;13.63;;;13.03;;
2157;SDS011;41972;48.774;9.282;2023-08-06T04:42:47;15.00;;;14.20;;
2157;SDS011;41972;48.774;9.282;2023-08-06T04:45:13;8.90;;;8.27;;
2157;SDS011;41972;48.774;9.282;2023-08-06T04:47:38;19.17;;;18.00;;
2157;SDS011;41972;48.774;9.282;2023-08-06T04:50:04;14.43;;;13.60;;
2157;SDS011;41972;48.774;9.282;2023-08-06T04:52:30;25.43;;;24.37;;
2157;SDS011;41972;48.774;9.282;2023-08-06T04:54:57;17.67;;;16.87;;
2157;SDS011;41972;48.774;9.282;2023-08-06T04:57:23;15.57;;;14.87;;
2157;SDS011;41972;48.774;9.282;2023-08-06T04:59:48;17.57;;;16.77;;
2157;SDS011;41972;48.774;9.282;2023-08-06T05:02:14;17.87;;;17.03;;
2157;SDS011;41972;48.774;9.282;2023-08-06T05:04:39;20.10;;;19.30;;
2157;SDS011;41972;48.774;9.282;2023-08-06T05:07:05;19.77;;;18.97;;
2157;SDS011;41972;48.774;9.282;2023-08-06T05:09:31;32.17;;;30.97;;
2157;SDS011;41972;48.774;9.282;2023-08-06T05:11:57;33.13;;;31.87;;
2157;SDS011;41972;48.774;9.282;2023-08-06T05:14:22;34.87;;;33.37;;
2157;SDS011;41972;48.774;9.282;2023-08-06T05:16:48;30.67;;;29.53;;
2157;SDS011;41972;48.774;9.282;2023-08-06T05:19:13;28.17;;;27.00;;
2157;SDS011;41972;48.774;9.282;2023-08-06T05:21:39;22.90;;;22.10;;
2157;SDS011;41972;48.774;9.282;2023-08-06T05:24:05;19.17;;;18.30;;
2157;SDS011;41972;48.774;9.282;2023-08-06T05:26:30;26.97;;;25.97;;
2157;SDS011;41972;48.774;9.282;2023-08-06T05:28:56;28.33;;;27.10;;
2157;SDS011;41972;48.774;9.282;2023-08-06T05:31:21;37.07;;;35.77;;
2157;SDS011;41972;48.774;9.282;2023-08-06T05:33:47;18.70;;;17.90;;
2157;SDS011;41972;48.774;9.282;2023-08-06T05:36:12;20.10;;;18.77;;
2157;SDS011;41972;48.774;9.282;2023-08-06T05:38:38;21.10;;;20.30;;
2157;SDS011;41972;48.774;9.282;2023-08-06T05:41:04;11.70;;;11.13;;
2157;SDS011;41972;48.774;9.282;2023-08-06T05:43:29;12.83;;;12.33;;
2157;SDS011;41972;48.774;9.282;2023-08-06T05:45:55;15.10;;;14.30;;
2157;SDS011;41972;48.774;9.282;2023-08-06T05:48:21;9.77;;;9.27;;
2157;SDS011;41972;48.774;9.282;2023-08-06T05:50:49;15.27;;;14.60;;
2157;SDS011;41972;48.774;9.282;2023-08-06T05:53:15;11.83;;;11.33;;
2157;SDS011;41972;48.774;9.282;2023-08-06T05:55:41;9.27;;;8.77;;
2157;SDS011;41972;48.774;9.282;2023-08-06T05:58:06;6.97;;;5.67;;
2157;SDS011;41972;48.774;9.282;2023-08-06T06:00:32;10.10;;;9.70;;
2157;SDS011;41972;48.774;9.282;2023-08-06T06:02:57;5.67;;;5.20;;
2157;SDS011;41972;48.774;9.282;2023-08-06T06:05:23;16.13;;;15.53;;
2157;SDS011;41972;48.774;9.282;2023-08-06T06:07:48;12.60;;;12.03;;
2157;SDS011;41972;48.774;9.282;2023-08-06T06:10:14;11.23;;;10.73;;
2157;SDS011;41972;48.774;9.282;2023-08-06T06:12:40;17.53;;;16.73;;
2157;SDS011;41972;48.774;9.282;2023-08-06T06:15:06;16.83;;;16.10;;
2157;SDS011;41972;48.774;9.282;2023-08-06T06:17:31;16.33;;;15.77;;
2157;SDS011;41972;48.774;9.282;2023-08-06T06:19:58;20.10;;;19.20;;
2157;SDS011;41972;48.774;9.282;2023-08-06T06:22:24;10.40;;;10.03;;
2157;SDS011;41972;48.774;9.282;2023-08-06T06:24:49;10.70;;;10.30;;
2157;SDS011;41972;48.774;9.282;2023-08-06T06:27:15;14.23;;;13.63;;
2157;SDS011;41972;48.774;9.282;2023-08-06T06:29:40;5.47;;;5.27;;
2157;SDS011;41972;48.774;9.282;2023-08-06T06:32:06;5.10;;;4.70;;
2157;SDS011;41972;48.774;9.282;2023-08-06T06:34:31;36.97;;;35.63;;
2157;SDS011;41972;48.774;9.282;2023-08-06T06:36:57;6.80;;;6.37;;
2157;SDS011;41972;48.774;9.282;2023-08-06T06:39:23;42.93;;;41.63;;
2157;SDS011;41972;48.774;9.282;2023-08-06T06:41:48;13.57;;;12.87;;
2157;SDS011;41972;48.774;9.282;2023-08-06T06:44:14;10.67;;;10.07;;
2157;SDS011;41972;48.774;9.282;2023-08-06T06:46:40;8.57;;;8.17;;
2157;SDS011;41972;48.774;9.282;2023-08-06T06:49:06;8.47;;;8.07;;
2157;SDS011;41972;48.774;9.282;2023-08-06T06:51:31;9.97;;;9.57;;
2157;SDS011;41972;48.774;9.282;2023-08-06T06:53:57;28.97;;;27.97;;
2157;SDS011;41972;48.774;9.282;2023-08-06T06:56:23;14.67;;;14.07;;
2157;SDS011;41972;48.774;9.282;2023-08-06T06:58:48;14.37;;;13.87;;
2157;SDS011;41972;48.774;9.282;2023-08-06T07:01:14;4.63;;;4.27;;
2157;SDS011;41972;48.774;9.282;2023-08-06T07:03:39;7.50;;;7.10;;
2157;SDS011;41972;48.774;9.282;2023-08-06T07:06:06;5.77;;;5.47;;
2157;SDS011;41972;48.774;9.282;2023-08-06T07:08:32;6.53;;;6.03;;
2157;SDS011;41972;48.774;9.282;2023-08-06T07:11:04;9.93;;;9.47;;
2157;SDS011;41972;48.774;9.282;2023-08-06T07:13:30;9.40;;;9.00;;
2157;SDS011;41972;48.774;9.282;2023-08-06T07:15:56;8.83;;;8.23;;
2157;SDS011;41972;48.774;9.282;2023-08-06T07:18:22;5.27;;;5.03;;
2157;SDS011;41972;48.774;9.282;2023-08-06T07:20:52;5.73;;;5.40;;
2157;SDS011;41972;48.774;9.282;2023-08-06T07:23:23;5.30;;;5.00;;
2157;SDS011;41972;48.774;9.282;2023-08-06T07:25:50;9.20;;;8.70;;
2157;SDS011;41972;48.774;9.282;2023-08-06T07:28:16;6.47;;;6.07;;
2157;SDS011;41972;48.774;9.282;2023-08-06T07:30:42;7.33;;;7.03;;
2157;SDS011;41972;48.774;9.282;2023-08-06T07:33:09;12.00;;;6.63;;
2157;SDS011;41972;48.774;9.282;2023-08-06T07:35:35;9.97;;;9.60;;
2157;SDS011;41972;48.774;9.282;2023-08-06T07:38:01;8.70;;;8.30;;
2157;SDS011;41972;48.774;9.282;2023-08-06T07:40:27;5.27;;;4.97;;
2157;SDS011;41972;48.774;9.282;2023-08-06T07:42:52;4.70;;;4.40;;
2157;SDS011;41972;48.774;9.282;2023-08-06T07:45:18;5.10;;;4.80;;
2157;SDS011;41972;48.774;9.282;2023-08-06T07:47:44;3.07;;;2.93;;
2157;SDS011;41972;48.774;9.282;2023-08-06T07:50:09;3.87;;;3.67;;
2157;SDS011;41972;48.774;9.282;2023-08-06T07:52:35;4.70;;;4.50;;
2157;SDS011;41972;48.774;9.282;2023-08-06T07:55:01;7.83;;;7.53;;
2157;SDS011;41972;48.774;9.282;2023-08-06T07:57:29;4.90;;;4.70;;
2157;SDS011;41972;48.774;9.282;2023-08-06T07:59:59;9.60;;;9.30;;
2157;SDS011;41972;48.774;9.282;2023-08-06T08:02:25;9.70;;;9.40;;
2157;SDS011;41972;48.774;9.282;2023-08-06T08:04:51;7.63;;;7.43;;
2157;SDS011;41972;48.774;9.282;2023-08-06T08:07:16;6.03;;;5.83;;
2157;SDS011;41972;48.774;9.282;2023-08-06T08:09:43;6.00;;;5.70;;
2157;SDS011;41972;48.774;9.282;2023-08-06T08:12:08;4.17;;;4.07;;
2157;SDS011;41972;48.774;9.282;2023-08-06T08:14:34;3.50;;;3.40;;
2157;SDS011;41972;48.774;9.282;2023-08-06T08:17:01;31.60;;;30.70;;
2157;SDS011;41972;48.774;9.282;2023-08-06T08:19:31;3.93;;;3.83;;
2157;SDS011;41972;48.774;9.282;2023-08-06T08:21:57;9.27;;;8.97;;
2157;SDS011;41972;48.774;9.282;2023-08-06T08:24:23;3.40;;;3.17;;
2157;SDS011;41972;48.774;9.282;2023-08-06T08:26:51;6.70;;;6.40;;
2157;SDS011;41972;48.774;9.282;2023-08-06T08:29:17;17.97;;;17.47;;
2157;SDS011;41972;48.774;9.282;2023-08-06T08:31:44;24.30;;;23.57;;
2157;SDS011;41972;48.774;9.282;2023-08-06T08:34:09;14.33;;;13.93;;
2157;SDS011;41972;48.774;9.282;2023-08-06T08:36:35;6.13;;;5.93;;
2157;SDS011;41972;48.774;9.282;2023-08-06T08:39:01;14.93;;;14.43;;
2157;SDS011;41972;48.774;9.282;2023-08-06T08:41:29;16.23;;;15.73;;
2157;SDS011;41972;48.774;9.282;2023-08-06T08:43:55;17.67;;;17.17;;
2157;SDS011;41972;48.774;9.282;2023-08-06T08:46:23;9.07;;;8.77;;
2157;SDS011;41972;48.774;9.282;2023-08-06T08:48:51;4.20;;;4.10;;
2157;SDS011;41972;48.774;9.282;2023-08-06T08:51:17;4.07;;;3.97;;
2157;SDS011;41972;48.774;9.282;2023-08-06T08:53:43;6.80;;;6.60;;
2157;SDS011;41972;48.774;9.282;2023-08-06T08:56:11;3.90;;;3.80;;
2157;SDS011;41972;48.774;9.282;2023-08-06T08:58:39;7.50;;;7.30;;
2157;SDS011;41972;48.774;9.282;2023-08-06T09:01:05;6.80;;;6.60;;
2157;SDS011;41972;48.774;9.282;2023-08-06T09:03:32;5.03;;;4.83;;
2157;SDS011;41972;48.774;9.282;2023-08-06T09:05:59;5.77;;;5.57;;
2157;SDS011;41972;48.774;9.282;2023-08-06T09:08:27;6.40;;;5.90;;
2157;SDS011;41972;48.774;9.282;2023-08-06T09:10:58;8.10;;;7.90;;
2157;SDS011;41972;48.774;9.282;2023-08-06T09:13:26;7.37;;;7.17;;
2157;SDS011;41972;48.774;9.282;2023-08-06T09:15:52;4.77;;;4.57;;
2157;SDS011;41972;48.774;9.282;2023-08-06T09:18:24;5.60;;;5.40;;
2157;SDS011;41972;48.774;9.282;2023-08-06T09:20:52;6.17;;;5.97;;
2157;SDS011;41972;48.774;9.282;2023-08-06T09:23:18;4.00;;;3.90;;
2157;SDS011;41972;48.774;9.282;2023-08-06T09:25:45;5.80;;;5.50;;
2157;SDS011;41972;48.774;9.282;2023-08-06T09:28:11;5.30;;;5.10;;
2157;SDS011;41972;48.774;9.282;2023-08-06T09:30:36;2.90;;;2.80;;
2157;SDS011;41972;48.774;9.282;2023-08-06T09:33:02;4.07;;;3.90;;
2157;SDS011;41972;48.774;9.282;2023-08-06T09:35:32;4.00;;;3.90;;
2157;SDS011;41972;48.774;9.282;2023-08-06T09:38:05;4.30;;;4.20;;
2157;SDS011;41972;48.774;9.282;2023-08-06T09:40:35;3.23;;;3.13;;
2157;SDS011;41972;48.774;9.282;2023-08-06T09:43:01;6.70;;;6.40;;
2157;SDS011;41972;48.774;9.282;2023-08-06T09:45:31;5.20;;;5.00;;
2157;SDS011;41972;48.774;9.282;2023-08-06T09:47:59;2.83;;;2.73;;
2157;SDS011;41972;48.774;9.282;2023-08-06T09:50:29;3.70;;;3.60;;
2157;SDS011;41972;48.774;9.282;2023-08-06T09:52:57;4.80;;;4.60;;
2157;SDS011;41972;48.774;9.282;2023-08-06T09:55:23;3.17;;;3.07;;
2157;SDS011;41972;48.774;9.282;2023-08-06T09:57:51;3.23;;;3.13;;
2157;SDS011;41972;48.774;9.282;2023-08-06T10:00:17;3.10;;;3.00;;
2157;SDS011;41972;48.774;9.282;2023-08-06T10:02:43;4.53;;;4.43;;
2157;SDS011;41972;48.774;9.282;2023-08-06T10:05:10;4.00;;;3.90;;
2157;SDS011;41972;48.774;9.282;2023-08-06T10:07:36;2.93;;;2.83;;
2157;SDS011;41972;48.774;9.282;2023-08-06T10:10:04;4.17;;;3.80;;
2157;SDS011;41972;48.774;9.282;2023-08-06T10:12:35;5.27;;;5.07;;
2157;SDS011;41972;48.774;9.282;2023-08-06T10:15:06;5.30;;;5.10;;
2157;SDS011;41972;48.774;9.282;2023-08-06T10:17:35;5.70;;;5.50;;
2157;SDS011;41972;48.774;9.282;2023-08-06T10:20:04;3.40;;;3.20;;
2157;SDS011;41972;48.774;9.282;2023-08-06T10:22:32;7.00;;;6.70;;
2157;SDS011;41972;48.774;9.282;2023-08-06T10:24:58;5.80;;;5.60;;
2157;SDS011;41972;48.774;9.282;2023-08-06T10:27:34;6.70;;;6.50;;
2157;SDS011;41972;48.774;9.282;2023-08-06T10:30:23;4.20;;;4.00;;
2157;SDS011;41972;48.774;9.282;2023-08-06T10:32:56;4.33;;;4.23;;
2157;SDS011;41972;48.774;9.282;2023-08-06T10:38:19;4.53;;;4.33;;
2157;SDS011;41972;48.774;9.282;2023-08-06T10:43:37;6.20;;;6.00;;
2157;SDS011;41972;48.774;9.282;2023-08-06T10:46:21;6.70;;;6.40;;
2157;SDS011;41972;48.774;9.282;2023-08-06T10:48:48;6.43;;;6.23;;
2157;SDS011;41972;48.774;9.282;2023-08-06T10:51:14;5.53;;;5.33;;
2157;SDS011;41972;48.774;9.282;2023-08-06T10:53:46;3.30;;;3.20;;
2157;SDS011;41972;48.774;9.282;2023-08-06T10:56:14;3.90;;;3.80;;
2157;SDS011;41972;48.774;9.282;2023-08-06T10:58:40;5.90;;;5.70;;
2157;SDS011;41972;48.774;9.282;2023-08-06T11:01:06;3.07;;;2.97;;
2157;SDS011;41972;48.774;9.282;2023-08-06T11:03:32;6.77;;;6.47;;
2157;SDS011;41972;48.774;9.282;2023-08-06T11:05:59;5.57;;;5.37;;
2157;SDS011;41972;48.774;9.282;2023-08-06T11:08:25;3.63;;;3.43;;
2157;SDS011;41972;48.774;9.282;2023-08-06T11:10:53;4.80;;;4.60;;
2157;SDS011;41972;48.774;9.282;2023-08-06T11:13:20;4.63;;;4.43;;
2157;SDS011;41972;48.774;9.282;2023-08-06T11:15:46;5.93;;;5.73;;
2157;SDS011;41972;48.774;9.282;2023-08-06T11:18:11;4.37;;;4.27;;
2157;SDS011;41972;48.774;9.282;2023-08-06T11:20:37;7.43;;;7.20;;
2157;SDS011;41972;48.774;9.282;2023-08-06T11:23:04;6.37;;;6.17;;
2157;SDS011;41972;48.774;9.282;2023-08-06T11:25:30;3.57;;;3.47;;
2157;SDS011;41972;48.774;9.282;2023-08-06T11:27:56;5.73;;;5.43;;
2157;SDS011;41972;48.774;9.282;2023-08-06T11:30:21;3.53;;;3.33;;
2157;SDS011;41972;48.774;9.282;2023-08-06T11:32:47;4.10;;;3.90;;
2157;SDS011;41972;48.774;9.282;2023-08-06T11:35:14;6.17;;;5.67;;
2157;SDS011;41972;48.774;9.282;2023-08-06T11:37:44;4.40;;;4.23;;
2157;SDS011;41972;48.774;9.282;2023-08-06T11:40:11;5.97;;;5.67;;
2157;SDS011;41972;48.774;9.282;2023-08-06T11:42:37;6.63;;;6.43;;
2157;SDS011;41972;48.774;9.282;2023-08-06T11:45:03;9.87;;;9.57;;
2157;SDS011;41972;48.774;9.282;2023-08-06T11:47:29;7.93;;;7.63;;
2157;SDS011;41972;48.774;9.282;2023-08-06T11:49:55;4.20;;;4.03;;
2157;SDS011;41972;48.774;9.282;2023-08-06T11:52:25;8.57;;;8.27;;
2157;SDS011;41972;48.774;9.282;2023-08-06T11:55:11;6.50;;;6.30;;
2157;SDS011;41972;48.774;9.282;2023-08-06T11:57:37;11.50;;;11.10;;
2157;SDS011;41972;48.774;9.282;2023-08-06T12:00:05;8.40;;;8.10;;
2157;SDS011;41972;48.774;9.282;2023-08-06T12:02:33;25.27;;;24.47;;
2157;SDS011;41972;48.774;9.282;2023-08-06T12:07:41;13.93;;;13.33;;
2157;SDS011;41972;48.774;9.282;2023-08-06T12:10:12;8.10;;;7.70;;
2157;SDS011;41972;48.774;9.282;2023-08-06T12:12:38;24.60;;;23.50;;
2157;SDS011;41972;48.774;9.282;2023-08-06T12:15:04;21.03;;;20.27;;
2157;SDS011;41972;48.774;9.282;2023-08-06T12:17:31;12.57;;;12.07;;
2157;SDS011;41972;48.774;9.282;2023-08-06T12:19:57;15.87;;;15.27;;
2157;SDS011;41972;48.774;9.282;2023-08-06T12:22:22;17.37;;;16.77;;
2157;SDS011;41972;48.774;9.282;2023-08-06T12:24:48;17.77;;;17.17;;
2157;SDS011;41972;48.774;9.282;2023-08-06T12:27:15;21.60;;;20.87;;
2157;SDS011;41972;48.774;9.282;2023-08-06T12:29:45;7.17;;;6.87;;
2157;SDS011;41972;48.774;9.282;2023-08-06T12:32:12;8.23;;;7.87;;
2157;SDS011;41972;48.774;9.282;2023-08-06T12:34:39;18.73;;;18.13;;
2157;SDS011;41972;48.774;9.282;2023-08-06T12:37:05;16.37;;;15.83;;
2157;SDS011;41972;48.774;9.282;2023-08-06T12:39:32;6.57;;;6.33;;
2157;SDS011;41972;48.774;9.282;2023-08-06T12:42:01;12.40;;;11.80;;
2157;SDS011;41972;48.774;9.282;2023-08-06T12:44:28;13.43;;;12.93;;
2157;SDS011;41972;48.774;9.282;2023-08-06T12:46:54;6.27;;;5.97;;
2157;SDS011;41972;48.774;9.282;2023-08-06T12:49:20;7.50;;;7.10;;
2157;SDS011;41972;48.774;9.282;2023-08-06T12:51:46;4.90;;;4.60;;
2157;SDS011;41972;48.774;9.282;2023-08-06T12:54:12;9.80;;;9.40;;
2157;SDS011;41972;48.774;9.282;2023-08-06T12:56:38;6.33;;;6.03;;
2157;SDS011;41972;48.774;9.282;2023-08-06T12:59:03;8.00;;;7.50;;
2157;SDS011;41972;48.774;9.282;2023-08-06T13:01:29;9.20;;;8.80;;
2157;SDS011;41972;48.774;9.282;2023-08-06T13:03:54;8.60;;;8.27;;
2157;SDS011;41972;48.774;9.282;2023-08-06T13:06:20;12.17;;;11.67;;
2157;SDS011;41972;48.774;9.282;2023-08-06T13:08:45;7.93;;;7.57;;
2157;SDS011;41972;48.774;9.282;2023-08-06T13:11:11;12.20;;;11.80;;
2157;SDS011;41972;48.774;9.282;2023-08-06T13:13:36;16.60;;;16.03;;
2157;SDS011;41972;48.774;9.282;2023-08-06T13:16:02;7.03;;;6.73;;
2157;SDS011;41972;48.774;9.282;2023-08-06T13:18:28;13.17;;;12.70;;
2157;SDS011;41972;48.774;9.282;2023-08-06T13:20:54;19.30;;;18.70;;
2157;SDS011;41972;48.774;9.282;2023-08-06T13:23:20;7.63;;;7.37;;
2157;SDS011;41972;48.774;9.282;2023-08-06T13:25:46;10.77;;;10.37;;
2157;SDS011;41972;48.774;9.282;2023-08-06T13:28:11;30.77;;;29.87;;
2157;SDS011;41972;48.774;9.282;2023-08-06T13:30:38;30.87;;;29.97;;
2157;SDS011;41972;48.774;9.282;2023-08-06T13:33:07;20.63;;;19.90;;
2157;SDS011;41972;48.774;9.282;2023-08-06T13:35:33;20.10;;;19.43;;
2157;SDS011;41972;48.774;9.282;2023-08-06T13:37:58;15.20;;;14.70;;
2157;SDS011;41972;48.774;9.282;2023-08-06T13:40:24;6.80;;;6.50;;
2157;SDS011;41972;48.774;9.282;2023-08-06T13:42:50;13.23;;;12.83;;
2157;SDS011;41972;48.774;9.282;2023-08-06T13:45:15;18.90;;;18.10;;
2157;SDS011;41972;48.774;9.282;2023-08-06T13:47:41;14.37;;;13.87;;
2157;SDS011;41972;48.774;9.282;2023-08-06T13:50:07;18.67;;;18.03;;
2157;SDS011;41972;48.774;9.282;2023-08-06T13:52:33;6.00;;;5.80;;
2157;SDS011;41972;48.774;9.282;2023-08-06T13:55:00;6.10;;;5.70;;
2157;SDS011;41972;48.774;9.282;2023-08-06T13:57:28;4.77;;;4.57;;
2157;SDS011;41972;48.774;9.282;2023-08-06T13:59:54;22.77;;;22.07;;
2157;SDS011;41972;48.774;9.282;2023-08-06T14:02:19;26.67;;;25.87;;
2157;SDS011;41972;48.774;9.282;2023-08-06T14:04:45;15.80;;;15.20;;
2157;SDS011;41972;48.774;9.282;2023-08-06T14:07:11;25.40;;;24.67;;
2157;SDS011;41972;48.774;9.282;2023-08-06T14:09:36;30.20;;;29.30;;
2157;SDS011;41972;48.774;9.282;2023-08-06T14:12:02;14.27;;;13.77;;
2157;SDS011;41972;48.774;9.282;2023-08-06T14:14:28;20.60;;;19.90;;
2157;SDS011;41972;48.774;9.282;2023-08-06T14:16:53;25.60;;;24.80;;
2157;SDS011;41972;48.774;9.282;2023-08-06T14:19:20;24.10;;;23.33;;
2157;SDS011;41972;48.774;9.282;2023-08-06T14:21:45;37.23;;;36.03;;
2157;SDS011;41972;48.774;9.282;2023-08-06T14:24:11;23.00;;;22.23;;
2157;SDS011;41972;48.774;9.282;2023-08-06T14:26:37;23.50;;;22.80;;
2157;SDS011;41972;48.774;9.282;2023-08-06T14:29:03;29.70;;;28.80;;
2157;SDS011;41972;48.774;9.282;2023-08-06T14:31:29;14.30;;;13.87;;
2157;SDS011;41972;48.774;9.282;2023-08-06T14:33:54;10.20;;;9.90;;
2157;SDS011;41972;48.774;9.282;2023-08-06T14:36:20;6.20;;;6.00;;
2157;SDS011;41972;48.774;9.282;2023-08-06T14:38:45;9.87;;;9.57;;
2157;SDS011;41972;48.774;9.282;2023-08-06T14:41:11;14.63;;;14.13;;
2157;SDS011;41972;48.774;9.282;2023-08-06T14:43:37;9.27;;;8.87;;
2157;SDS011;41972;48.774;9.282;2023-08-06T14:46:02;10.47;;;10.07;;
2157;SDS011;41972;48.774;9.282;2023-08-06T14:48:28;17.10;;;16.50;;
2157;SDS011;41972;48.774;9.282;2023-08-06T14:50:55;9.40;;;9.00;;
2157;SDS011;41972;48.774;9.282;2023-08-06T14:53:21;4.37;;;4.17;;
2157;SDS011;41972;48.774;9.282;2023-08-06T14:55:46;6.90;;;6.63;;
2157;SDS011;41972;48.774;9.282;2023-08-06T14:58:12;7.47;;;7.27;;